Time;durP1;ratioP1;P1;durP2;ratioP2;P2;SDS_P1;SDS_P2;PMS_P1;PMS_P2;Temp;Humidity;BMP_temperature;BMP_pressure;BME280_temperature;BME280_humidity;BME280_pressure;Samples;Min_cycle;Max_cycle;Signal;HPM_P1;HPM_P2
2024/03/24 00:01:56;;;;;;;13.23;3.88;;;7.00;99.90;;;;;;5026827;28;20091;-71
2024/03/24 00:04:22;;;;;;;10.18;4.00;;;7.00;99.90;;;;;;5028649;28;20486;-71
2024/03/24 00:06:48;;;;;;;9.23;4.35;;;6.90;99.90;;;;;;5028320;28;20032;-71
2024/03/24 00:09:14;;;;;;;10.10;3.97;;;6.90;99.90;;;;;;5028698;28;20390;-71
2024/03/24 00:11:42;;;;;;;9.38;3.70;;;6.90;99.90;;;;;;5025805;28;20021;-71
2024/03/24 00:14:08;;;;;;;9.15;4.22;;;6.90;99.90;;;;;;5027973;28;20421;-71
2024/03/24 00:16:33;;;;;;;10.75;3.90;;;6.90;99.90;;;;;;5028040;28;20034;-71
2024/03/24 00:19:00;;;;;;;7.18;3.95;;;7.00;99.90;;;;;;5028101;28;20486;-71
2024/03/24 00:21:26;;;;;;;6.55;3.88;;;7.00;99.90;;;;;;5026680;28;20013;-71
2024/03/24 00:23:52;;;;;;;11.93;4.03;;;7.00;99.90;;;;;;5028532;28;20116;-71
2024/03/24 00:26:18;;;;;;;9.07;3.88;;;7.00;99.90;;;;;;5026023;28;20116;-71
2024/03/24 00:28:44;;;;;;;10.23;4.60;;;6.90;99.90;;;;;;5026229;28;20100;-71
2024/03/24 00:31:10;;;;;;;9.35;4.35;;;6.90;99.90;;;;;;5027673;28;20104;-71
2024/03/24 00:33:35;;;;;;;11.85;4.55;;;7.00;99.90;;;;;;5028385;28;20021;-71
2024/03/24 00:36:01;;;;;;;9.30;4.47;;;6.90;99.90;;;;;;5027040;28;20041;-71
2024/03/24 00:38:26;;;;;;;10.00;5.35;;;6.90;99.90;;;;;;5027972;28;20045;-71
2024/03/24 00:40:52;;;;;;;10.80;4.38;;;7.00;99.90;;;;;;5027283;28;20045;-71
2024/03/24 00:43:18;;;;;;;12.85;4.22;;;7.00;99.90;;;;;;5025971;28;20360;-71
2024/03/24 00:45:44;;;;;;;10.52;5.05;;;7.00;99.90;;;;;;5027315;28;20493;-71
2024/03/24 00:48:10;;;;;;;10.63;4.78;;;7.00;99.90;;;;;;5027001;28;20025;-71
2024/03/24 00:50:35;;;;;;;9.88;4.93;;;7.00;99.90;;;;;;5027020;28;20047;-71
2024/03/24 00:53:01;;;;;;;6.68;4.72;;;7.00;99.90;;;;;;5027666;28;20044;-71
2024/03/24 00:55:27;;;;;;;11.93;5.30;;;7.00;99.90;;;;;;5026676;28;20393;-71
2024/03/24 00:57:52;;;;;;;9.13;4.50;;;7.10;99.90;;;;;;5025854;28;20056;-71
2024/03/24 01:00:18;;;;;;;10.20;5.22;;;7.00;99.90;;;;;;5027075;28;20068;-71
2024/03/24 01:02:48;;;;;;;11.68;4.65;;;7.00;99.90;;;;;;5026527;28;20370;-71
2024/03/24 01:05:14;;;;;;;11.13;4.70;;;7.00;99.90;;;;;;5027150;28;20089;-71
2024/03/24 01:07:40;;;;;;;13.38;4.88;;;7.00;99.90;;;;;;5026483;28;20092;-71
2024/03/24 01:10:06;;;;;;;11.27;5.65;;;7.10;99.90;;;;;;5026881;28;20501;-71
2024/03/24 01:12:32;;;;;;;8.05;5.15;;;7.10;99.90;;;;;;5026918;28;20013;-71
2024/03/24 01:14:57;;;;;;;10.13;4.78;;;7.00;99.90;;;;;;5025134;28;20029;-71
2024/03/24 01:17:23;;;;;;;13.02;5.55;;;7.10;99.90;;;;;;5027236;28;20036;-71
2024/03/24 01:19:49;;;;;;;9.93;4.57;;;7.10;99.90;;;;;;5026379;28;20037;-71
2024/03/24 01:22:14;;;;;;;11.43;5.10;;;7.00;99.90;;;;;;5026773;28;20505;-71
2024/03/24 01:24:40;;;;;;;9.00;5.03;;;7.00;99.90;;;;;;5026571;28;20029;-71
2024/03/24 01:27:06;;;;;;;10.07;5.28;;;7.10;99.90;;;;;;5025442;28;20489;-71
2024/03/24 01:29:32;;;;;;;9.55;4.75;;;7.10;99.90;;;;;;5026631;28;20029;-72
2024/03/24 01:31:58;;;;;;;8.25;5.20;;;7.20;99.90;;;;;;5025036;28;20025;-71
2024/03/24 01:34:24;;;;;;;9.23;4.72;;;7.10;99.90;;;;;;5026945;28;20107;-72
2024/03/24 01:36:50;;;;;;;9.50;4.20;;;7.10;99.90;;;;;;5025806;28;20030;-72
2024/03/24 01:39:16;;;;;;;9.40;4.45;;;7.10;99.90;;;;;;5026347;28;20386;-72
2024/03/24 01:41:41;;;;;;;7.90;4.20;;;7.00;99.90;;;;;;5025649;28;20026;-72
2024/03/24 01:44:07;;;;;;;12.43;4.78;;;7.10;99.90;;;;;;5027083;28;20517;-72
2024/03/24 01:46:33;;;;;;;10.95;4.57;;;7.10;99.90;;;;;;5025708;28;20500;-72
2024/03/24 01:48:59;;;;;;;10.27;4.68;;;7.10;99.90;;;;;;5026093;28;20490;-72
2024/03/24 01:51:25;;;;;;;10.55;4.70;;;7.10;99.90;;;;;;5025912;28;20540;-72
2024/03/24 01:53:53;;;;;;;8.90;4.00;;;7.10;99.90;;;;;;5025455;28;20029;-72
2024/03/24 01:56:19;;;;;;;14.20;4.90;;;7.10;99.90;;;;;;5026051;28;20056;-72
2024/03/24 01:58:45;;;;;;;8.27;4.38;;;7.10;99.90;;;;;;5025831;28;20017;-72
2024/03/24 02:01:11;;;;;;;10.65;4.97;;;7.00;99.90;;;;;;5022695;28;20033;-72
2024/03/24 02:03:38;;;;;;;11.10;4.25;;;7.00;99.90;;;;;;5024413;28;20028;-72
2024/03/24 02:06:04;;;;;;;12.70;4.57;;;7.00;99.90;;;;;;5026427;28;20028;-72
2024/03/24 02:08:31;;;;;;;9.40;4.03;;;7.10;99.90;;;;;;5025173;28;20106;-72
2024/03/24 02:11:00;;;;;;;10.25;4.95;;;7.10;99.90;;;;;;5025054;28;20029;-72
2024/03/24 02:13:26;;;;;;;11.02;4.50;;;7.10;99.90;;;;;;5024127;28;20017;-72
2024/03/24 02:15:53;;;;;;;15.13;5.22;;;7.10;99.90;;;;;;5026220;28;20042;-72
2024/03/24 02:18:19;;;;;;;13.88;5.53;;;7.20;99.90;;;;;;5025261;28;20029;-72
2024/03/24 02:20:45;;;;;;;15.80;6.35;;;7.20;99.90;;;;;;5026144;28;20041;-72
2024/03/24 02:23:11;;;;;;;9.63;4.97;;;7.10;99.90;;;;;;5024681;28;20018;-72
2024/03/24 02:25:36;;;;;;;12.20;4.68;;;7.20;99.90;;;;;;5024897;28;20296;-72
2024/03/24 02:28:02;;;;;;;13.18;5.10;;;7.20;99.90;;;;;;5025486;28;20048;-72
2024/03/24 02:30:28;;;;;;;9.82;5.00;;;7.30;99.90;;;;;;5024798;28;20033;-72
2024/03/24 02:32:54;;;;;;;10.75;5.22;;;7.30;99.90;;;;;;5025185;28;20029;-72
2024/03/24 02:35:20;;;;;;;11.50;4.55;;;7.30;99.90;;;;;;5024619;28;20035;-72
2024/03/24 02:37:45;;;;;;;14.50;5.20;;;7.30;99.90;;;;;;5024050;28;20030;-72
2024/03/24 02:40:11;;;;;;;13.38;5.20;;;7.30;99.90;;;;;;5025362;28;20017;-72
2024/03/24 02:42:37;;;;;;;12.32;5.10;;;7.20;99.90;;;;;;5024598;28;20028;-72
2024/03/24 02:45:04;;;;;;;15.95;5.80;;;7.20;99.90;;;;;;5025559;28;20033;-73
2024/03/24 02:47:31;;;;;;;15.95;4.60;;;7.20;99.90;;;;;;5023993;28;20025;-72
2024/03/24 02:50:00;;;;;;;14.68;4.85;;;7.10;99.90;;;;;;5024139;28;20024;-72
2024/03/24 02:52:26;;;;;;;11.90;4.63;;;7.20;99.90;;;;;;5024111;28;20477;-72
2024/03/24 02:54:51;;;;;;;13.68;4.47;;;7.20;99.90;;;;;;5024928;28;20079;-72
2024/03/24 02:57:17;;;;;;;7.88;4.35;;;7.20;99.90;;;;;;5024190;28;20072;-72
2024/03/24 02:59:43;;;;;;;13.48;4.78;;;7.20;99.90;;;;;;5025658;28;20030;-72
2024/03/24 03:02:09;;;;;;;14.98;5.22;;;7.30;99.90;;;;;;5024202;28;20581;-72
2024/03/24 03:04:35;;;;;;;11.77;5.18;;;7.30;99.90;;;;;;5025710;28;20032;-72
2024/03/24 03:07:01;;;;;;;16.40;5.10;;;7.30;99.90;;;;;;5024816;28;20025;-72
2024/03/24 03:09:27;;;;;;;8.98;4.40;;;7.30;99.90;;;;;;5024636;28;20627;-72
2024/03/24 03:11:55;;;;;;;14.27;5.40;;;7.40;99.90;;;;;;5025014;28;20107;-72
2024/03/24 03:14:21;;;;;;;14.52;5.82;;;7.40;99.90;;;;;;5024885;28;20029;-72
2024/03/24 03:16:47;;;;;;;15.48;5.43;;;7.40;99.90;;;;;;5024889;28;20515;-72
2024/03/24 03:19:12;;;;;;;10.50;4.70;;;7.40;99.90;;;;;;5024478;28;20041;-73
2024/03/24 03:21:38;;;;;;;15.98;4.75;;;7.40;99.90;;;;;;5024785;28;20038;-72
2024/03/24 03:24:05;;;;;;;16.45;5.00;;;7.40;99.90;;;;;;5025091;28;20049;-72
2024/03/24 03:26:30;;;;;;;17.88;5.57;;;7.30;99.90;;;;;;5023603;28;20100;-73
2024/03/24 03:28:56;;;;;;;13.68;5.05;;;7.30;99.90;;;;;;5024958;28;20436;-73
2024/03/24 03:31:22;;;;;;;12.65;5.13;;;7.30;99.90;;;;;;5024324;28;20041;-72
2024/03/24 03:33:47;;;;;;;16.20;5.68;;;7.30;99.90;;;;;;5025203;28;20068;-72
2024/03/24 03:36:13;;;;;;;14.98;5.07;;;7.30;99.90;;;;;;5024646;28;20108;-72
2024/03/24 03:38:39;;;;;;;11.80;5.20;;;7.30;99.90;;;;;;5023999;28;20101;-72
2024/03/24 03:41:05;;;;;;;11.32;5.57;;;7.30;99.90;;;;;;5024387;28;20029;-72
2024/03/24 03:43:32;;;;;;;17.00;5.40;;;7.30;99.90;;;;;;5024244;28;20024;-72
2024/03/24 03:45:58;;;;;;;10.68;5.50;;;7.40;99.90;;;;;;5024001;28;20067;-72
2024/03/24 03:48:23;;;;;;;13.98;6.05;;;7.30;99.90;;;;;;5025210;28;20034;-72
2024/03/24 03:50:50;;;;;;;15.90;5.82;;;7.20;99.90;;;;;;5024498;28;20045;-72
2024/03/24 03:53:22;;;;;;;21.40;6.78;;;7.30;99.90;;;;;;5022986;28;20032;-73
2024/03/24 03:55:57;;;;;;;18.77;5.97;;;7.30;99.90;;;;;;5024389;28;20045;-72
2024/03/24 03:58:23;;;;;;;15.98;6.05;;;7.30;99.90;;;;;;5021615;28;20111;-72
2024/03/24 04:00:49;;;;;;;22.05;7.03;;;7.20;99.90;;;;;;5026253;28;20061;-73
2024/03/24 04:03:14;;;;;;;16.10;6.47;;;7.40;99.90;;;;;;5028371;28;20029;-72
2024/03/24 04:05:41;;;;;;;17.58;6.50;;;7.40;99.90;;;;;;5028098;28;20080;-72
2024/03/24 04:08:08;;;;;;;14.60;5.28;;;7.30;99.90;;;;;;5028644;28;20540;-72
2024/03/24 04:10:37;;;;;;;15.85;5.68;;;7.30;99.90;;;;;;5026715;28;20026;-72
2024/03/24 04:13:04;;;;;;;19.08;6.47;;;7.30;99.90;;;;;;5028554;28;20083;-72
2024/03/24 04:15:30;;;;;;;16.80;6.18;;;7.30;99.90;;;;;;5028201;28;20060;-72
2024/03/24 04:17:55;;;;;;;22.83;6.72;;;7.40;99.90;;;;;;5027985;28;20060;-72
2024/03/24 04:20:21;;;;;;;12.20;5.78;;;7.40;99.90;;;;;;5027616;28;20009;-72
2024/03/24 04:22:47;;;;;;;16.77;6.63;;;7.40;99.90;;;;;;5027456;28;20033;-72
2024/03/24 04:25:14;;;;;;;20.42;7.30;;;7.40;99.90;;;;;;5028903;28;20036;-71
2024/03/24 04:27:40;;;;;;;14.45;6.43;;;7.40;99.90;;;;;;5028534;28;20573;-71
2024/03/24 04:30:07;;;;;;;24.63;7.63;;;7.40;99.90;;;;;;5028304;28;20434;-72
2024/03/24 04:32:34;;;;;;;13.43;6.03;;;7.40;99.90;;;;;;5027342;28;20018;-72
2024/03/24 04:35:00;;;;;;;15.82;5.85;;;7.40;99.90;;;;;;5028256;28;20490;-72
2024/03/24 04:37:26;;;;;;;18.17;6.38;;;7.30;99.90;;;;;;5028403;28;20470;-72
2024/03/24 04:39:52;;;;;;;19.30;6.20;;;7.40;99.90;;;;;;5026579;28;20026;-71
2024/03/24 04:42:18;;;;;;;26.30;5.60;;;7.40;99.90;;;;;;5026990;28;20079;-72
2024/03/24 04:44:44;;;;;;;16.20;5.50;;;7.40;99.90;;;;;;5028373;28;21419;-72
2024/03/24 04:47:10;;;;;;;17.48;5.40;;;7.50;99.90;;;;;;5027163;28;20452;-72
2024/03/24 04:49:35;;;;;;;22.48;6.32;;;7.50;99.90;;;;;;5027830;28;20037;-71
2024/03/24 04:52:01;;;;;;;12.32;5.95;;;7.60;99.90;;;;;;5026935;28;20029;-72
2024/03/24 04:54:27;;;;;;;16.35;5.25;;;7.70;99.90;;;;;;5027816;28;20022;-72
2024/03/24 04:56:53;;;;;;;21.42;5.60;;;7.60;99.90;;;;;;5026281;28;20501;-72
2024/03/24 04:59:18;;;;;;;22.08;5.65;;;7.60;99.90;;;;;;5026168;28;20090;-72
2024/03/24 05:01:44;;;;;;;17.58;5.88;;;7.50;99.90;;;;;;5022015;28;20255;-72
2024/03/24 05:04:10;;;;;;;16.02;5.35;;;7.60;99.90;;;;;;5027245;28;20370;-72
2024/03/24 05:06:36;;;;;;;16.67;5.13;;;7.60;99.90;;;;;;5026385;28;20047;-72
2024/03/24 05:09:04;;;;;;;13.27;4.72;;;7.50;99.90;;;;;;5022650;28;20024;-72
2024/03/24 05:11:30;;;;;;;21.60;5.55;;;7.50;99.90;;;;;;5026075;28;20030;-72
2024/03/24 05:13:56;;;;;;;19.33;5.05;;;7.60;99.90;;;;;;5026800;28;20051;-73
2024/03/24 05:16:22;;;;;;;21.30;5.43;;;7.60;99.90;;;;;;5026432;28;20091;-72
2024/03/24 05:18:48;;;;;;;16.45;5.55;;;7.60;99.90;;;;;;5026777;28;20423;-72
2024/03/24 05:21:14;;;;;;;18.35;5.50;;;7.60;99.90;;;;;;5021561;28;20040;-73
2024/03/24 05:23:40;;;;;;;19.20;5.60;;;7.60;99.90;;;;;;5023485;28;20018;-72
2024/03/24 05:26:05;;;;;;;18.13;5.43;;;7.70;99.90;;;;;;5025248;28;20029;-72
2024/03/24 05:28:31;;;;;;;16.85;4.72;;;7.60;99.90;;;;;;5023940;28;20493;-71
2024/03/24 05:30:57;;;;;;;17.05;6.07;;;7.60;99.90;;;;;;5024119;28;20037;-71
2024/03/24 05:33:23;;;;;;;18.92;5.07;;;7.70;99.90;;;;;;5027119;28;20025;-70
2024/03/24 05:35:58;;;;;;;22.85;5.30;;;7.70;99.90;;;;;;5025396;28;20116;-71
2024/03/24 05:38:24;;;;;;;16.10;5.95;;;7.60;99.90;;;;;;5020356;28;20057;-71
2024/03/24 05:40:57;;;;;;;16.17;6.43;;;7.50;99.90;;;;;;5021874;28;20654;-70
2024/03/24 05:43:23;;;;;;;16.95;6.32;;;7.50;99.90;;;;;;5025737;28;20021;-70
2024/03/24 05:45:49;;;;;;;15.43;6.57;;;7.40;99.90;;;;;;5026238;28;20025;-71
2024/03/24 05:48:14;;;;;;;16.42;7.05;;;7.50;99.90;;;;;;5026089;28;20376;-71
2024/03/24 05:50:40;;;;;;;14.02;5.72;;;7.50;99.90;;;;;;5024735;28;20548;-71
2024/03/24 05:53:06;;;;;;;11.82;6.15;;;7.50;99.90;;;;;;5025930;28;20025;-71
2024/03/24 05:55:34;;;;;;;11.95;6.13;;;7.50;99.90;;;;;;5026365;28;20474;-71
2024/03/24 05:58:00;;;;;;;14.02;5.90;;;7.50;99.90;;;;;;5022950;28;20108;-71
2024/03/24 06:00:26;;;;;;;16.77;5.60;;;7.60;99.90;;;;;;5024917;28;20112;-71
2024/03/24 06:02:52;;;;;;;12.98;4.90;;;7.40;99.90;;;;;;5026658;28;20482;-71
2024/03/24 06:05:17;;;;;;;8.77;4.43;;;7.60;99.90;;;;;;5025923;28;20033;-71
2024/03/24 06:07:43;;;;;;;11.35;4.65;;;7.60;99.90;;;;;;5026296;28;20018;-71
2024/03/24 06:10:09;;;;;;;9.73;4.55;;;7.60;99.90;;;;;;5025887;28;20061;-71
2024/03/24 06:12:35;;;;;;;8.25;4.35;;;7.60;99.90;;;;;;5025290;28;20017;-71
2024/03/24 06:15:00;;;;;;;12.52;5.07;;;7.70;99.90;;;;;;5024184;28;20117;-71
2024/03/24 06:17:26;;;;;;;15.60;5.10;;;7.60;99.90;;;;;;5025230;28;20116;-71
2024/03/24 06:19:52;;;;;;;13.90;5.60;;;7.60;99.90;;;;;;5025486;28;20386;-71
2024/03/24 06:22:17;;;;;;;18.50;6.28;;;7.50;99.90;;;;;;5025437;28;20025;-71
2024/03/24 06:24:44;;;;;;;15.45;7.47;;;7.50;99.90;;;;;;5025916;28;20039;-71
2024/03/24 06:27:09;;;;;;;20.70;8.65;;;7.60;99.90;;;;;;5025540;28;20017;-71
2024/03/24 06:29:35;;;;;;;20.23;9.38;;;7.60;99.90;;;;;;5024351;28;20025;-71
2024/03/24 06:32:01;;;;;;;24.60;11.77;;;7.60;99.90;;;;;;5025563;28;20021;-71
2024/03/24 06:34:26;;;;;;;27.23;12.55;;;7.60;99.90;;;;;;5025474;28;20804;-71
2024/03/24 06:36:52;;;;;;;28.55;10.95;;;7.60;99.90;;;;;;5025618;28;20470;-71
2024/03/24 06:39:18;;;;;;;23.25;11.07;;;7.60;99.90;;;;;;5025299;28;20078;-71
2024/03/24 06:41:44;;;;;;;21.73;9.93;;;7.60;99.90;;;;;;5026117;28;20103;-71
2024/03/24 06:44:13;;;;;;;25.20;10.43;;;7.70;99.90;;;;;;5024456;28;20409;-71
2024/03/24 06:46:45;;;;;;;24.02;9.07;;;7.60;99.90;;;;;;5024127;28;20107;-71
2024/03/24 06:49:14;;;;;;;20.85;8.32;;;7.60;99.90;;;;;;5023311;28;20033;-70
2024/03/24 06:51:40;;;;;;;20.25;7.07;;;7.60;99.90;;;;;;5024386;28;20031;-72
2024/03/24 06:54:05;;;;;;;16.63;5.72;;;7.60;99.90;;;;;;5025477;28;20021;-71
2024/03/24 06:56:31;;;;;;;17.70;5.57;;;7.60;99.90;;;;;;5024992;28;20513;-72
2024/03/24 06:58:57;;;;;;;15.30;6.13;;;7.60;99.90;;;;;;5025195;28;20025;-72
2024/03/24 07:01:22;;;;;;;15.07;6.10;;;7.80;99.90;;;;;;5025041;28;20061;-71
2024/03/24 07:03:48;;;;;;;10.18;5.75;;;7.80;99.90;;;;;;5025236;28;20029;-71
2024/03/24 07:06:14;;;;;;;9.43;5.55;;;7.80;99.90;;;;;;5025121;28;20514;-71
2024/03/24 07:08:42;;;;;;;9.13;5.03;;;7.90;99.90;;;;;;5025401;28;20028;-71
2024/03/24 07:11:08;;;;;;;13.15;5.40;;;7.90;99.90;;;;;;5024110;28;20048;-70
2024/03/24 07:13:34;;;;;;;8.45;4.93;;;8.00;99.90;;;;;;5024829;28;20661;-70
2024/03/24 07:16:00;;;;;;;11.98;5.38;;;7.90;99.90;;;;;;5025208;28;20128;-69
2024/03/24 07:18:26;;;;;;;16.40;5.90;;;7.90;99.90;;;;;;5024631;28;20517;-69
2024/03/24 07:21:02;;;;;;;12.30;5.80;;;8.00;99.90;;;;;;5025168;28;20434;-70
2024/03/24 07:23:29;;;;;;;14.27;5.97;;;8.10;99.90;;;;;;5024723;28;20025;-69
2024/03/24 07:25:55;;;;;;;15.27;7.25;;;8.20;99.90;;;;;;5025295;28;20056;-70
2024/03/24 07:28:21;;;;;;;13.88;7.35;;;8.10;99.90;;;;;;5025192;28;20049;-70
2024/03/24 07:30:46;;;;;;;19.17;8.75;;;8.20;99.90;;;;;;5024629;28;20081;-70
2024/03/24 07:33:13;;;;;;;17.65;9.27;;;8.20;99.90;;;;;;5024776;28;20025;-70
2024/03/24 07:35:40;;;;;;;22.63;9.43;;;8.20;99.90;;;;;;5026684;28;20121;-72
2024/03/24 07:38:05;;;;;;;18.35;9.57;;;8.20;99.90;;;;;;5028936;28;20037;-71
2024/03/24 07:40:31;;;;;;;22.77;9.70;;;8.10;99.90;;;;;;5026732;28;20013;-69
2024/03/24 07:42:57;;;;;;;18.98;9.10;;;8.20;99.90;;;;;;5028337;28;20534;-70
2024/03/24 07:45:23;;;;;;;25.08;8.82;;;8.30;99.90;;;;;;5027081;28;20104;-69
2024/03/24 07:47:49;;;;;;;25.80;9.63;;;8.40;99.90;;;;;;5028706;28;20038;-69
2024/03/24 07:50:16;;;;;;;19.00;8.82;;;8.50;99.90;;;;;;5026351;28;20430;-69
2024/03/24 07:52:41;;;;;;;18.55;9.30;;;8.70;99.90;;;;;;5029419;28;20022;-71
2024/03/24 07:55:07;;;;;;;18.98;7.72;;;8.70;99.90;;;;;;5026318;28;20470;-69
2024/03/24 07:57:33;;;;;;;19.08;8.60;;;8.60;99.90;;;;;;5028612;28;20411;-71
2024/03/24 07:59:59;;;;;;;16.52;8.63;;;8.80;99.90;;;;;;5025829;28;20022;-70
2024/03/24 08:02:25;;;;;;;15.98;7.03;;;8.80;99.90;;;;;;5027443;28;20033;-69
2024/03/24 08:04:51;;;;;;;19.80;8.45;;;8.90;99.90;;;;;;5028695;28;20026;-70
2024/03/24 08:07:16;;;;;;;20.58;7.43;;;9.00;99.90;;;;;;5028377;28;22661;-69
2024/03/24 08:09:42;;;;;;;20.73;7.03;;;9.10;99.90;;;;;;5027979;28;20091;-70
2024/03/24 08:12:08;;;;;;;16.35;6.28;;;9.00;99.90;;;;;;5027588;28;20108;-70
2024/03/24 08:14:34;;;;;;;21.23;8.20;;;9.00;99.90;;;;;;5027113;28;20087;-70
2024/03/24 08:17:00;;;;;;;18.38;7.43;;;9.10;99.90;;;;;;5026479;28;20029;-73
2024/03/24 08:19:26;;;;;;;21.33;8.43;;;9.10;99.90;;;;;;5026920;28;20033;-71
2024/03/24 08:21:52;;;;;;;20.52;8.68;;;9.10;99.90;;;;;;5027212;28;20037;-73
2024/03/24 08:24:18;;;;;;;20.33;8.80;;;9.10;99.90;;;;;;5025716;28;20029;-70
2024/03/24 08:26:44;;;;;;;19.02;7.75;;;9.10;99.90;;;;;;5027658;28;20045;-71
2024/03/24 08:29:10;;;;;;;18.42;7.20;;;9.10;99.90;;;;;;5027549;28;20104;-70
2024/03/24 08:31:36;;;;;;;24.45;7.78;;;9.10;99.90;;;;;;5026486;28;20562;-71
2024/03/24 08:34:02;;;;;;;19.75;7.65;;;9.10;99.90;;;;;;5028463;28;20029;-72
2024/03/24 08:36:28;;;;;;;20.85;7.88;;;9.20;99.90;;;;;;5027164;28;20103;-71
2024/03/24 08:38:53;;;;;;;15.65;8.05;;;9.20;99.90;;;;;;5027137;28;20049;-70
2024/03/24 08:41:19;;;;;;;15.93;6.95;;;9.40;99.90;;;;;;5027822;28;20056;-73
2024/03/24 08:43:45;;;;;;;16.17;6.70;;;9.50;99.90;;;;;;5026585;28;20032;-72
2024/03/24 08:46:11;;;;;;;19.23;6.47;;;9.50;99.90;;;;;;5026466;28;20033;-71
2024/03/24 08:48:36;;;;;;;16.30;6.95;;;9.50;99.90;;;;;;5027244;28;20028;-71
2024/03/24 08:51:02;;;;;;;21.40;6.93;;;9.60;99.90;;;;;;5026964;28;20489;-71
2024/03/24 08:53:32;;;;;;;17.67;6.60;;;9.60;99.90;;;;;;5025621;28;20017;-72
2024/03/24 08:55:59;;;;;;;23.35;7.45;;;9.60;99.90;;;;;;5028852;28;20044;-75
2024/03/24 08:58:25;;;;;;;17.60;7.20;;;9.70;99.90;;;;;;5028509;28;20462;-72
2024/03/24 09:00:52;;;;;;;21.20;6.85;;;9.70;99.90;;;;;;5025326;28;20100;-73
2024/03/24 09:03:18;;;;;;;16.27;5.50;;;9.80;99.90;;;;;;5028294;28;20017;-74
2024/03/24 09:05:43;;;;;;;18.95;5.85;;;9.70;99.90;;;;;;5027202;28;20415;-73
2024/03/24 09:08:09;;;;;;;18.55;5.28;;;9.80;99.90;;;;;;5026393;28;20129;-73
2024/03/24 09:10:35;;;;;;;15.15;4.22;;;10.10;99.90;;;;;;5026449;28;20530;-73
2024/03/24 09:13:00;;;;;;;17.23;3.95;;;10.00;99.90;;;;;;5027167;28;20087;-73
2024/03/24 09:15:26;;;;;;;12.63;4.10;;;10.10;99.90;;;;;;5024898;28;20042;-74
2024/03/24 09:17:52;;;;;;;20.70;4.43;;;10.20;99.90;;;;;;5027153;28;20036;-75
2024/03/24 09:20:19;;;;;;;15.80;3.67;;;10.40;99.90;;;;;;5026308;28;20116;-73
2024/03/24 09:22:45;;;;;;;15.00;3.95;;;10.50;99.90;;;;;;5027022;28;20041;-74
2024/03/24 09:25:11;;;;;;;21.05;4.63;;;10.50;99.90;;;;;;5027042;28;20029;-73
2024/03/24 09:27:37;;;;;;;10.45;3.42;;;10.60;99.90;;;;;;5025830;28;20017;-72
2024/03/24 09:30:05;;;;;;;11.60;3.88;;;10.50;99.90;;;;;;5024109;28;20478;-72
2024/03/24 09:32:30;;;;;;;16.15;4.35;;;10.40;99.90;;;;;;5025548;28;20029;-74
2024/03/24 09:34:56;;;;;;;10.68;3.67;;;10.40;99.90;;;;;;5027403;28;20021;-72
2024/03/24 09:37:22;;;;;;;9.93;3.20;;;10.60;99.90;;;;;;5025815;28;20115;-72
2024/03/24 09:39:48;;;;;;;10.30;3.25;;;10.70;99.90;;;;;;5025652;28;20478;-72
2024/03/24 09:42:18;;;;;;;15.40;4.18;;;10.70;99.90;;;;;;5026388;28;20029;-72
2024/03/24 09:44:44;;;;;;;14.75;3.42;;;10.80;99.90;;;;;;5024386;28;20037;-73
2024/03/24 09:47:11;;;;;;;16.02;3.47;;;10.80;99.90;;;;;;5023474;28;20033;-73
2024/03/24 09:49:38;;;;;;;10.70;2.75;;;10.70;99.90;;;;;;5026131;28;20030;-73
2024/03/24 09:52:07;;;;;;;15.50;4.00;;;10.60;99.90;;;;;;5025227;28;20029;-74
2024/03/24 09:54:35;;;;;;;14.82;3.03;;;10.60;99.90;;;;;;5022796;28;20025;-74
2024/03/24 09:57:01;;;;;;;12.10;2.95;;;10.70;99.90;;;;;;5024777;28;20030;-75
2024/03/24 09:59:28;;;;;;;11.52;3.00;;;10.70;99.90;;;;;;5024425;28;20109;-72
2024/03/24 10:01:55;;;;;;;15.90;3.30;;;10.80;99.90;;;;;;5025980;28;20160;-75
2024/03/24 10:04:21;;;;;;;15.07;3.50;;;10.90;99.90;;;;;;5025543;28;20032;-75
2024/03/24 10:06:47;;;;;;;17.70;3.70;;;11.00;99.90;;;;;;5024114;28;20385;-75
2024/03/24 10:09:13;;;;;;;14.38;3.42;;;11.10;99.90;;;;;;5025181;28;20013;-75
2024/03/24 10:11:38;;;;;;;15.35;3.60;;;11.00;99.90;;;;;;5024492;28;20067;-76
2024/03/24 10:14:08;;;;;;;13.93;3.13;;;11.20;99.90;;;;;;5023155;28;20057;-75
2024/03/24 10:16:34;;;;;;;20.58;3.65;;;11.40;99.90;;;;;;5041256;28;20056;-75
2024/03/24 10:19:14;;;;;;;12.43;3.15;;;11.50;99.90;;;;;;5024245;28;20390;-75
2024/03/24 10:21:40;;;;;;;12.27;3.30;;;11.60;99.90;;;;;;5025036;28;20096;-75
2024/03/24 10:24:09;;;;;;;19.50;3.53;;;11.70;99.90;;;;;;5025729;28;20124;-73
2024/03/24 10:26:39;;;;;;;13.15;4.03;;;11.40;99.90;;;;;;5023495;28;20021;-74
2024/03/24 10:29:05;;;;;;;24.20;3.65;;;11.50;99.90;;;;;;5026332;28;20025;-75
2024/03/24 10:31:34;;;;;;;20.77;3.22;;;11.50;99.90;;;;;;5025382;28;20029;-73
2024/03/24 10:34:02;;;;;;;9.68;2.83;;;11.80;99.90;;;;;;5026412;28;20029;-74
2024/03/24 10:36:39;;;;;;;13.68;3.15;;;11.90;99.90;;;;;;5026136;28;20037;-75
2024/03/24 10:39:08;;;;;;;13.15;3.40;;;12.00;99.90;;;;;;5026441;28;20033;-76
2024/03/24 10:41:35;;;;;;;11.35;2.97;;;11.90;99.90;;;;;;5026021;28;20455;-75
2024/03/24 10:44:02;;;;;;;12.55;3.40;;;12.10;99.90;;;;;;5024787;28;20543;-75
2024/03/24 10:46:32;;;;;;;14.00;4.18;;;12.20;99.90;;;;;;5025772;28;20025;-74
2024/03/24 10:49:03;;;;;;;13.60;2.97;;;12.10;99.90;;;;;;5025248;28;20017;-74
2024/03/24 10:51:31;;;;;;;8.25;2.42;;;12.00;99.90;;;;;;5024484;28;20095;-74
2024/03/24 10:54:03;;;;;;;12.45;3.05;;;11.90;99.90;;;;;;5026199;28;20039;-75
2024/03/24 10:56:32;;;;;;;15.32;3.95;;;12.00;99.90;;;;;;5025868;28;20505;-76
2024/03/24 10:59:07;;;;;;;19.20;3.22;;;12.10;99.90;;;;;;5026040;28;20059;-75
2024/03/24 11:01:34;;;;;;;14.95;3.72;;;12.20;99.90;;;;;;5025304;28;20029;-74
2024/03/24 11:04:02;;;;;;;12.65;3.10;;;12.10;99.90;;;;;;5024059;28;20100;-75
2024/03/24 11:06:28;;;;;;;14.68;3.67;;;12.10;99.90;;;;;;5026259;28;20056;-73
2024/03/24 11:08:54;;;;;;;12.07;3.42;;;11.90;99.90;;;;;;5025371;28;20056;-75
2024/03/24 11:11:21;;;;;;;10.13;2.90;;;12.00;99.90;;;;;;5025531;28;20445;-75
2024/03/24 11:13:49;;;;;;;11.90;3.17;;;12.10;99.90;;;;;;5026060;28;20060;-75
2024/03/24 11:16:14;;;;;;;16.38;4.03;;;12.10;99.90;;;;;;5025841;28;20037;-73
2024/03/24 11:18:41;;;;;;;14.75;3.63;;;11.90;99.90;;;;;;5025621;28;20505;-76
2024/03/24 11:21:34;;;;;;;11.65;3.88;;;11.80;99.90;;;;;;5025515;28;20021;-74
2024/03/24 11:24:01;;;;;;;12.05;2.95;;;11.60;99.90;;;;;;5025907;28;20040;-75
2024/03/24 11:26:32;;;;;;;10.80;2.60;;;11.60;99.90;;;;;;5024360;28;20561;-73
2024/03/24 11:28:58;;;;;;;13.15;3.03;;;11.50;99.90;;;;;;5025629;28;20538;-75
2024/03/24 11:31:23;;;;;;;13.15;3.15;;;11.50;99.90;;;;;;5024744;28;20021;-75
2024/03/24 11:34:11;;;;;;;13.85;2.92;;;11.40;99.90;;;;;;5025439;28;20493;-73
2024/03/24 11:36:40;;;;;;;8.05;3.33;;;11.40;99.90;;;;;;5024843;28;20509;-75
2024/03/24 11:39:09;;;;;;;12.93;3.50;;;11.40;99.90;;;;;;5021810;28;20390;-74
2024/03/24 11:41:35;;;;;;;14.82;3.47;;;11.40;99.90;;;;;;5022773;28;20101;-75
2024/03/24 11:44:06;;;;;;;15.88;3.88;;;11.50;99.90;;;;;;5024475;28;20097;-73
2024/03/24 11:46:36;;;;;;;10.05;3.58;;;11.40;99.90;;;;;;5022262;28;20030;-75
2024/03/24 11:49:03;;;;;;;13.27;3.30;;;11.40;99.90;;;;;;5024808;28;20030;-75
2024/03/24 11:51:42;;;;;;;9.02;3.05;;;11.40;99.90;;;;;;5023853;28;20044;-74
2024/03/24 11:54:08;;;;;;;10.48;3.30;;;11.40;99.90;;;;;;5024895;28;20055;-73
2024/03/24 11:56:35;;;;;;;13.18;3.72;;;11.40;99.90;;;;;;5025145;28;20071;-74
2024/03/24 11:59:02;;;;;;;13.02;3.53;;;11.20;99.90;;;;;;5025186;28;20057;-75
2024/03/24 12:01:28;;;;;;;15.23;3.70;;;11.10;99.90;;;;;;5024243;28;20478;-74
2024/03/24 12:03:53;;;;;;;13.95;3.63;;;11.10;99.90;;;;;;5024717;28;20033;-74
2024/03/24 12:06:20;;;;;;;13.02;2.97;;;11.00;99.90;;;;;;5023668;28;20025;-74
2024/03/24 12:08:47;;;;;;;15.45;3.83;;;11.20;99.90;;;;;;5024215;28;20351;-72
2024/03/24 12:11:16;;;;;;;12.85;3.60;;;11.30;99.90;;;;;;5022789;28;20029;-72
2024/03/24 12:13:43;;;;;;;11.27;2.65;;;11.40;99.90;;;;;;5023095;28;20116;-73
2024/03/24 12:16:16;;;;;;;16.52;3.55;;;11.40;99.90;;;;;;5022858;28;20386;-75
2024/03/24 12:18:42;;;;;;;11.07;3.10;;;11.50;99.90;;;;;;5022674;28;20040;-76
2024/03/24 12:21:08;;;;;;;14.13;2.90;;;11.60;99.90;;;;;;5024897;28;20029;-72
2024/03/24 12:23:35;;;;;;;13.52;3.65;;;11.50;99.90;;;;;;5027268;28;20044;-77
2024/03/24 12:26:02;;;;;;;13.70;3.47;;;11.50;99.90;;;;;;5027889;28;20022;-75
2024/03/24 12:28:27;;;;;;;10.73;3.88;;;11.50;99.90;;;;;;5027291;28;22220;-85
2024/03/24 12:30:55;;;;;;;16.50;3.88;;;11.40;99.90;;;;;;5027001;28;20017;-76
2024/03/24 12:33:30;;;;;;;13.25;3.78;;;11.50;99.90;;;;;;5024933;28;20088;-78
2024/03/24 12:35:57;;;;;;;13.20;3.60;;;11.40;99.90;;;;;;5026382;28;20164;-75
2024/03/24 12:38:23;;;;;;;16.10;3.67;;;11.50;99.90;;;;;;5027683;28;20018;-76
2024/03/24 12:40:53;;;;;;;13.23;3.75;;;11.40;99.90;;;;;;5025297;28;20032;-77
2024/03/24 12:43:19;;;;;;;16.65;3.40;;;11.30;99.90;;;;;;5026311;28;20076;-77